Challenge Peak — 9V9589 — position and weather

sailwx.info

Track history (hours):
 
Tides and Currents Weather Stations Pressure Air Temp Water Temp Dewpoint Dewpoint Depression Visibility Wind Speed Wind Dir Waves Ship Positions

Challenge Peak

Last reported at 2016-Dec-04 01:31 UTC. Time now 2016-Dec-09 05:51 UTC.
Position N 01°14' E 103°59'.

Length 182 m; draft 11.6 m.

Type: Tanker. MMSI: 566433000.

Date/timePositionNaut miles runAvg speedWind from/ knotsBaromVisibWave heightAir tempDewpointWater temp
2016-Dec-04 01:31N 01°14' E 103°59'10 9.7
2016-Dec-04 00:29N 01°12' E 103°49'3 3.5
2016-Dec-03 23:30N 01°14' E 103°47'0 0.1
2016-Dec-03 22:30N 01°14' E 103°47'0 0.1
2016-Dec-03 21:09N 01°14' E 103°47'0 0.0
2016-Dec-03 19:30N 01°14' E 103°47'0 0.1
2016-Dec-03 18:30N 01°14' E 103°47'0 0.0
2016-Dec-03 17:30N 01°14' E 103°47'0 0.0
2016-Dec-03 16:30N 01°14' E 103°47'0 0.0
2016-Dec-03 15:24N 01°14' E 103°47'0 0.2
2016-Dec-03 14:30N 01°14' E 103°47'0 0.0
2016-Dec-03 13:30N 01°14' E 103°47'0 0.1
2016-Dec-03 12:33N 01°14' E 103°47'5 4.8
2016-Dec-03 11:33N 01°15' E 103°42'1 0.0
2016-Dec-02 12:32N 01°14' E 103°42'5 4.9
2016-Dec-02 11:32N 01°15' E 103°46'8 8.1
2016-Dec-02 10:33N 01°14' E 103°54'11 5.6
2016-Dec-02 08:33N 01°24' E 104°00'10 9.5
2016-Dec-02 07:33N 01°28' E 103°52'4 0.1
2016-Dec-01 00:22N 01°28' E 103°48'3 4.1
2016-Nov-30 23:33N 01°28' E 103°51'10 9.9
2016-Nov-30 22:34N 01°24' E 104°00'8 6.2
2016-Nov-30 21:21N 01°17' E 104°03'911.7
2016-Nov-30 20:33N 01°14' E 103°54'6 6.0
2016-Nov-30 19:33N 01°12' E 103°48'8 7.8
2016-Nov-30 18:33N 01°16' E 103°41'0 0.0
2016-Nov-30 06:31N 01°16' E 103°41'0 0.0
2016-Nov-29 22:17N 01°16' E 103°41'0 0.0
2016-Nov-29 21:34N 01°16' E 103°41'0 0.0
2016-Nov-29 20:28N 01°16' E 103°41'0 0.0
2016-Nov-29 19:08N 01°16' E 103°41'1 1.5
2016-Nov-29 18:33N 01°15' E 103°42'2 0.1
2016-Nov-28 14:14N 01°15' E 103°39'3 5.0
2016-Nov-28 13:33N 01°15' E 103°43'6 5.2
2016-Nov-28 12:30N 01°13' E 103°48'0 0.0
2016-Nov-28 11:33N 01°13' E 103°48'0 0.1
2016-Nov-28 10:33N 01°13' E 103°48'0 0.1
2016-Nov-28 09:33N 01°13' E 103°48'0 0.1
2016-Nov-28 08:33N 01°13' E 103°48'0 0.0
2016-Nov-28 06:33N 01°13' E 103°48'0 0.0
2016-Nov-28 05:33N 01°13' E 103°48'0 0.1
2016-Nov-28 04:33N 01°13' E 103°48'0 0.1
2016-Nov-28 03:33N 01°13' E 103°48'0 0.1
2016-Nov-28 02:33N 01°13' E 103°48'0 0.1
2016-Nov-28 01:33N 01°14' E 103°48'0 0.1
2016-Nov-28 00:27N 01°14' E 103°48'0 0.1
2016-Nov-27 23:33N 01°13' E 103°48'0 0.0
2016-Nov-27 22:33N 01°13' E 103°48'0 0.1
2016-Nov-27 21:33N 01°13' E 103°48'0 0.0
2016-Nov-27 20:27N 01°13' E 103°48'0 0.0
2016-Nov-27 19:33N 01°13' E 103°48'0 0.0
2016-Nov-27 18:33N 01°13' E 103°48'0 0.1
2016-Nov-27 17:27N 01°13' E 103°48'0 0.1
2016-Nov-27 16:30N 01°13' E 103°48'0 0.1
2016-Nov-27 15:33N 01°13' E 103°48'0 0.0
2016-Nov-27 13:30N 01°13' E 103°48'0 0.1
2016-Nov-27 12:33N 01°13' E 103°48'0 0.1
2016-Nov-27 11:33N 01°13' E 103°48'0 0.1
2016-Nov-27 10:33N 01°13' E 103°48'0 0.1
2016-Nov-27 09:33N 01°13' E 103°48'0 0.0
2016-Nov-27 08:27N 01°13' E 103°48'0 0.0
2016-Nov-27 07:30N 01°13' E 103°48'0 0.0
2016-Nov-27 06:33N 01°13' E 103°48'0 0.0
2016-Nov-27 05:33N 01°13' E 103°48'0 0.0
2016-Nov-27 04:33N 01°13' E 103°48'1 0.6
2016-Nov-27 03:33N 01°13' E 103°49'10 9.5
2016-Nov-27 02:33N 01°16' E 103°58'7 6.8
2016-Nov-27 01:32N 01°16' E 104°05'6 4.3
2016-Nov-27 00:09N 01°17' E 104°11'  
Track history (hours):
 
Tides and Currents Weather Stations Pressure Air Temp Water Temp Dewpoint Dewpoint Depression Visibility Wind Speed Wind Dir Waves Ship Positions

Challenge Peak

Last reported at 2016-Dec-04 01:31 UTC. Time now 2016-Dec-09 05:51 UTC.
Position N 01°14' E 103°59'.

Length 182 m; draft 11.6 m.

Type: Tanker. MMSI: 566433000.

Date/timePositionNaut miles runAvg speedWind from/ knotsBaromVisibWave heightAir tempDewpointWater temp
2016-Dec-04 01:31N 01°14' E 103°59'10 9.7
2016-Dec-04 00:29N 01°12' E 103°49'3 3.5
2016-Dec-03 23:30N 01°14' E 103°47'0 0.1
2016-Dec-03 22:30N 01°14' E 103°47'0 0.1
2016-Dec-03 21:09N 01°14' E 103°47'0 0.0
2016-Dec-03 19:30N 01°14' E 103°47'0 0.1
2016-Dec-03 18:30N 01°14' E 103°47'0 0.0
2016-Dec-03 17:30N 01°14' E 103°47'0 0.0
2016-Dec-03 16:30N 01°14' E 103°47'0 0.0
2016-Dec-03 15:24N 01°14' E 103°47'0 0.2
2016-Dec-03 14:30N 01°14' E 103°47'0 0.0
2016-Dec-03 13:30N 01°14' E 103°47'0 0.1
2016-Dec-03 12:33N 01°14' E 103°47'5 4.8
2016-Dec-03 11:33N 01°15' E 103°42'1 0.0
2016-Dec-02 12:32N 01°14' E 103°42'5 4.9
2016-Dec-02 11:32N 01°15' E 103°46'8 8.1
2016-Dec-02 10:33N 01°14' E 103°54'11 5.6
2016-Dec-02 08:33N 01°24' E 104°00'10 9.5
2016-Dec-02 07:33N 01°28' E 103°52'4 0.1
2016-Dec-01 00:22N 01°28' E 103°48'3 4.1
2016-Nov-30 23:33N 01°28' E 103°51'10 9.9
2016-Nov-30 22:34N 01°24' E 104°00'8 6.2
2016-Nov-30 21:21N 01°17' E 104°03'911.7
2016-Nov-30 20:33N 01°14' E 103°54'6 6.0
2016-Nov-30 19:33N 01°12' E 103°48'8 7.8
2016-Nov-30 18:33N 01°16' E 103°41'0 0.0
2016-Nov-30 06:31N 01°16' E 103°41'0 0.0
2016-Nov-29 22:17N 01°16' E 103°41'0 0.0
2016-Nov-29 21:34N 01°16' E 103°41'0 0.0
2016-Nov-29 20:28N 01°16' E 103°41'0 0.0
2016-Nov-29 19:08N 01°16' E 103°41'1 1.5
2016-Nov-29 18:33N 01°15' E 103°42'2 0.1
2016-Nov-28 14:14N 01°15' E 103°39'3 5.0
2016-Nov-28 13:33N 01°15' E 103°43'6 5.2
2016-Nov-28 12:30N 01°13' E 103°48'0 0.0
2016-Nov-28 11:33N 01°13' E 103°48'0 0.1
2016-Nov-28 10:33N 01°13' E 103°48'0 0.1
2016-Nov-28 09:33N 01°13' E 103°48'0 0.1
2016-Nov-28 08:33N 01°13' E 103°48'0 0.0
2016-Nov-28 06:33N 01°13' E 103°48'0 0.0
2016-Nov-28 05:33N 01°13' E 103°48'0 0.1
2016-Nov-28 04:33N 01°13' E 103°48'0 0.1
2016-Nov-28 03:33N 01°13' E 103°48'0 0.1
2016-Nov-28 02:33N 01°13' E 103°48'0 0.1
2016-Nov-28 01:33N 01°14' E 103°48'0 0.1
2016-Nov-28 00:27N 01°14' E 103°48'0 0.1
2016-Nov-27 23:33N 01°13' E 103°48'0 0.0
2016-Nov-27 22:33N 01°13' E 103°48'0 0.1
2016-Nov-27 21:33N 01°13' E 103°48'0 0.0
2016-Nov-27 20:27N 01°13' E 103°48'0 0.0
2016-Nov-27 19:33N 01°13' E 103°48'0 0.0
2016-Nov-27 18:33N 01°13' E 103°48'0 0.1
2016-Nov-27 17:27N 01°13' E 103°48'0 0.1
2016-Nov-27 16:30N 01°13' E 103°48'0 0.1
2016-Nov-27 15:33N 01°13' E 103°48'0 0.0
2016-Nov-27 13:30N 01°13' E 103°48'0 0.1
2016-Nov-27 12:33N 01°13' E 103°48'0 0.1
2016-Nov-27 11:33N 01°13' E 103°48'0 0.1
2016-Nov-27 10:33N 01°13' E 103°48'0 0.1
2016-Nov-27 09:33N 01°13' E 103°48'0 0.0
2016-Nov-27 08:27N 01°13' E 103°48'0 0.0
2016-Nov-27 07:30N 01°13' E 103°48'0 0.0
2016-Nov-27 06:33N 01°13' E 103°48'0 0.0
2016-Nov-27 05:33N 01°13' E 103°48'0 0.0
2016-Nov-27 04:33N 01°13' E 103°48'1 0.6
2016-Nov-27 03:33N 01°13' E 103°49'10 9.5
2016-Nov-27 02:33N 01°16' E 103°58'7 6.8
2016-Nov-27 01:32N 01°16' E 104°05'6 4.3
2016-Nov-27 00:09N 01°17' E 104°11'  

Dump ship's entire track history